createdAt,value
2022-12-13T00:01:46.646Z,19.13
2022-12-13T00:04:14.871Z,20.37
2022-12-13T00:06:44.611Z,19.73
2022-12-13T00:09:15.218Z,19.20
2022-12-13T00:11:43.388Z,19.30
2022-12-13T00:14:13.858Z,20.67
2022-12-13T00:16:42.322Z,20.43
2022-12-13T00:19:10.416Z,21.23
2022-12-13T00:21:39.752Z,19.57
2022-12-13T00:24:09.375Z,20.93
2022-12-13T00:26:38.042Z,20.47
2022-12-13T00:29:08.452Z,19.60
2022-12-13T00:31:59.437Z,20.50
2022-12-13T00:34:25.202Z,19.50
2022-12-13T00:36:54.798Z,20.37
2022-12-13T00:39:24.165Z,18.67
2022-12-13T00:41:52.080Z,18.67
2022-12-13T00:44:20.333Z,18.63
2022-12-13T00:46:48.396Z,18.53
2022-12-13T00:49:16.541Z,18.93
2022-12-13T00:51:44.849Z,19.57
2022-12-13T00:54:12.684Z,18.40
2022-12-13T00:56:41.890Z,18.73
2022-12-13T00:59:14.338Z,19.50
2022-12-13T01:01:42.283Z,18.37
2022-12-13T01:04:10.199Z,17.93
2022-12-13T01:06:43.123Z,19.27
2022-12-13T01:09:17.089Z,18.80
2022-12-13T01:11:47.472Z,18.83
2022-12-13T01:14:16.337Z,19.03
2022-12-13T01:16:44.360Z,18.87
2022-12-13T01:19:12.338Z,18.77
2022-12-13T01:21:40.320Z,18.47
2022-12-13T01:24:08.669Z,19.20
2022-12-13T01:26:37.768Z,19.23
2022-12-13T01:29:07.183Z,19.60
2022-12-13T01:31:37.582Z,19.70
2022-12-13T01:34:10.544Z,19.70
2022-12-13T01:36:40.206Z,18.73
2022-12-13T01:39:14.620Z,20.90
2022-12-13T01:41:44.819Z,21.47
2022-12-13T01:44:46.088Z,21.87
2022-12-13T01:47:19.204Z,19.20
2022-12-13T01:49:47.423Z,19.60
2022-12-13T01:52:16.318Z,19.00
2022-12-13T01:54:47.972Z,20.47
2022-12-13T01:57:18.555Z,20.33
2022-12-13T01:59:48.241Z,20.03
2022-12-13T02:02:17.519Z,17.33
2022-12-13T02:04:51.687Z,19.77
2022-12-13T02:07:23.737Z,19.97
2022-12-13T02:09:56.497Z,19.57
2022-12-13T02:12:29.609Z,18.57
2022-12-13T02:15:00.766Z,20.47
2022-12-13T02:17:45.726Z,19.40
2022-12-13T02:20:52.371Z,19.33
2022-12-13T02:23:38.841Z,20.00
2022-12-13T02:26:32.332Z,18.60
2022-12-13T02:29:30.563Z,18.70
2022-12-13T02:32:05.285Z,18.77
2022-12-13T02:34:39.702Z,18.90
2022-12-13T02:37:18.034Z,18.40
2022-12-13T02:39:53.116Z,17.40
2022-12-13T02:42:26.548Z,17.43
2022-12-13T02:44:58.781Z,18.00
2022-12-13T02:47:30.224Z,17.17
2022-12-13T02:50:02.898Z,18.03
2022-12-13T02:52:33.650Z,18.87
2022-12-13T02:55:01.528Z,16.37
2022-12-13T02:57:32.697Z,16.63
2022-12-13T03:00:04.277Z,16.60
2022-12-13T03:02:44.640Z,16.53
2022-12-13T03:05:41.135Z,15.27
2022-12-13T03:08:22.214Z,14.70
2022-12-13T03:11:00.163Z,13.10
2022-12-13T03:13:37.542Z,16.10
2022-12-13T03:16:24.215Z,14.10
2022-12-13T03:18:56.236Z,15.97
2022-12-13T03:21:24.431Z,16.83
2022-12-13T03:23:53.182Z,17.70
2022-12-13T03:26:24.124Z,16.70
2022-12-13T03:28:52.662Z,16.40
2022-12-13T03:31:20.935Z,16.37
2022-12-13T03:33:48.902Z,17.37
2022-12-13T03:36:19.805Z,16.03
2022-12-13T03:38:48.768Z,15.53
2022-12-13T03:41:19.860Z,16.50
2022-12-13T03:43:47.885Z,15.57
2022-12-13T03:46:15.877Z,16.20
2022-12-13T03:48:43.815Z,15.83
2022-12-13T03:51:11.708Z,15.13
2022-12-13T03:53:40.951Z,15.43
2022-12-13T03:56:09.374Z,15.40
2022-12-13T03:58:38.453Z,14.77
2022-12-13T04:01:11.542Z,13.70
2022-12-13T04:03:40.560Z,13.40
2022-12-13T04:06:09.630Z,14.67
2022-12-13T04:08:38.825Z,14.83
2022-12-13T04:11:22.833Z,13.90
2022-12-13T04:13:50.679Z,15.13
2022-12-13T04:16:18.877Z,13.77
2022-12-13T04:18:46.814Z,13.77
2022-12-13T04:21:14.683Z,14.80
2022-12-13T04:23:42.415Z,13.97
2022-12-13T04:26:11.617Z,14.20
2022-12-13T04:28:39.584Z,13.67
2022-12-13T04:31:08.011Z,13.40
2022-12-13T04:33:35.913Z,13.57
2022-12-13T04:36:04.085Z,14.10
2022-12-13T04:38:31.952Z,14.23
2022-12-13T04:41:07.048Z,15.63
2022-12-13T04:43:36.332Z,14.80
2022-12-13T04:46:04.588Z,13.03
2022-12-13T04:48:33.470Z,14.17
2022-12-13T04:51:02.762Z,13.13
2022-12-13T04:53:31.235Z,13.87
2022-12-13T04:55:59.194Z,13.30
2022-12-13T04:58:27.799Z,13.67
2022-12-13T05:00:57.437Z,13.90
2022-12-13T05:03:25.768Z,13.83
2022-12-13T05:05:53.702Z,14.60
2022-12-13T05:08:21.624Z,13.73
2022-12-13T05:10:49.595Z,13.20
2022-12-13T05:13:17.736Z,14.13
2022-12-13T05:15:49.422Z,13.10
2022-12-13T05:18:21.347Z,14.30
2022-12-13T05:20:50.922Z,14.77
2022-12-13T05:23:22.346Z,15.60
2022-12-13T05:25:51.274Z,15.43
2022-12-13T05:28:27.893Z,14.07
2022-12-13T05:30:58.578Z,15.50
2022-12-13T05:33:28.327Z,14.80
2022-12-13T05:35:59.937Z,14.20
2022-12-13T05:38:29.781Z,16.23
2022-12-13T05:40:57.554Z,19.17
2022-12-13T05:43:42.367Z,15.03
2022-12-13T05:46:12.746Z,14.83
2022-12-13T05:48:42.342Z,15.60
2022-12-13T05:51:11.853Z,15.20
2022-12-13T05:53:41.470Z,15.37
2022-12-13T05:56:10.894Z,15.90
2022-12-13T05:58:40.166Z,15.57
2022-12-13T06:01:10.107Z,14.63
2022-12-13T06:03:38.263Z,13.93
2022-12-13T06:06:09.520Z,14.57
2022-12-13T06:08:38.177Z,14.73
2022-12-13T06:11:10.860Z,15.93
2022-12-13T06:13:42.821Z,15.23
2022-12-13T06:16:22.445Z,15.53
2022-12-13T06:19:02.739Z,15.87
2022-12-13T06:21:43.931Z,14.50
2022-12-13T06:24:15.397Z,13.30
2022-12-13T06:26:45.414Z,16.30
2022-12-13T06:29:24.266Z,15.10
2022-12-13T06:31:55.071Z,14.10
2022-12-13T06:34:32.820Z,15.23
2022-12-13T06:37:02.706Z,16.67
2022-12-13T06:39:33.269Z,13.80
2022-12-13T06:42:02.723Z,15.20
2022-12-13T06:44:30.714Z,15.80
2022-12-13T06:47:11.839Z,15.27
2022-12-13T06:49:43.682Z,13.77
2022-12-13T06:52:16.171Z,14.57
2022-12-13T06:54:44.886Z,14.87
2022-12-13T06:57:13.837Z,14.27
2022-12-13T06:59:42.687Z,14.70
2022-12-13T07:02:15.481Z,13.70
2022-12-13T07:04:55.551Z,14.13
2022-12-13T07:07:26.253Z,15.17
2022-12-13T07:09:54.718Z,15.73
2022-12-13T07:12:23.092Z,14.67
2022-12-13T07:14:50.980Z,15.33
2022-12-13T07:17:31.801Z,15.93
2022-12-13T07:20:07.770Z,14.47
2022-12-13T07:22:44.972Z,14.87
2022-12-13T07:25:28.539Z,13.97
2022-12-13T07:28:02.932Z,16.00
2022-12-13T07:30:33.663Z,14.30
2022-12-13T07:33:02.786Z,13.50
2022-12-13T07:35:31.024Z,14.33
2022-12-13T07:38:07.259Z,13.63
2022-12-13T07:40:35.728Z,13.70
2022-12-13T07:43:03.828Z,14.20
2022-12-13T07:45:31.742Z,15.00
2022-12-13T07:48:00.364Z,15.57
2022-12-13T07:50:28.381Z,16.40
2022-12-13T07:53:08.261Z,15.27
2022-12-13T07:55:37.433Z,15.50
2022-12-13T07:58:06.633Z,15.40
2022-12-13T08:00:34.540Z,14.33
2022-12-13T08:03:02.662Z,15.27
2022-12-13T08:05:38.223Z,15.23
2022-12-13T08:08:11.832Z,13.77
2022-12-13T08:10:40.227Z,15.17
2022-12-13T08:13:08.320Z,15.63
2022-12-13T08:15:36.209Z,14.40
2022-12-13T08:18:06.901Z,14.93
2022-12-13T08:20:34.917Z,15.20
2022-12-13T08:23:02.891Z,15.27
2022-12-13T08:25:32.703Z,14.63
2022-12-13T08:28:01.494Z,13.20
2022-12-13T08:30:31.537Z,13.93
2022-12-13T08:32:59.403Z,14.70
2022-12-13T08:35:34.839Z,14.47
2022-12-13T08:38:03.683Z,14.43
2022-12-13T08:40:33.973Z,14.60
2022-12-13T08:43:01.931Z,14.93
2022-12-13T08:45:31.601Z,15.60
2022-12-13T08:48:00.884Z,14.20
2022-12-13T08:50:29.438Z,14.37
2022-12-13T08:52:57.721Z,14.77
2022-12-13T08:55:31.239Z,14.27
2022-12-13T08:58:08.386Z,15.17
2022-12-13T09:00:40.105Z,13.77
2022-12-13T09:03:10.193Z,14.03
2022-12-13T09:05:39.086Z,14.73
2022-12-13T09:08:23.096Z,13.53
2022-12-13T09:11:11.358Z,14.27
2022-12-13T09:13:52.400Z,14.47
2022-12-13T09:16:35.761Z,14.47
2022-12-13T09:19:06.600Z,13.03
2022-12-13T09:21:53.647Z,12.33
2022-12-13T09:24:36.189Z,13.00
2022-12-13T09:27:09.239Z,14.17
2022-12-13T09:29:39.646Z,13.33
2022-12-13T09:32:07.794Z,13.67
2022-12-13T09:34:35.934Z,14.40
2022-12-13T09:37:04.014Z,13.53
2022-12-13T09:39:31.899Z,13.60
2022-12-13T09:42:01.755Z,13.63
2022-12-13T09:44:49.756Z,13.63
2022-12-13T09:47:47.136Z,13.53
2022-12-13T09:50:25.201Z,13.37
2022-12-13T09:52:59.993Z,14.17
2022-12-13T09:55:32.302Z,13.87
2022-12-13T09:58:06.692Z,14.53
2022-12-13T10:00:37.527Z,14.33
2022-12-13T10:03:05.531Z,14.97
2022-12-13T10:05:39.423Z,14.53
2022-12-13T10:08:12.811Z,14.43
2022-12-13T10:10:40.993Z,13.47
2022-12-13T10:13:17.661Z,14.33
2022-12-13T10:15:51.473Z,14.43
2022-12-13T10:18:27.883Z,14.40
2022-12-13T10:20:56.807Z,13.87
2022-12-13T10:23:47.051Z,13.10
2022-12-13T10:26:24.300Z,13.03
2022-12-13T10:29:03.039Z,13.13
2022-12-13T10:31:41.541Z,13.60
2022-12-13T10:34:21.269Z,12.57
2022-12-13T10:36:49.381Z,12.60
2022-12-13T10:39:20.207Z,13.03
2022-12-13T10:41:48.582Z,13.50
2022-12-13T10:44:22.563Z,12.63
2022-12-13T10:47:00.873Z,12.77
2022-12-13T10:49:35.935Z,13.70
2022-12-13T10:52:04.041Z,12.97
2022-12-13T10:54:38.462Z,13.13
2022-12-13T10:57:16.600Z,13.30
2022-12-13T10:59:47.154Z,12.07
2022-12-13T11:02:36.889Z,12.33
2022-12-13T11:05:27.413Z,12.17
2022-12-13T11:08:00.923Z,12.73
2022-12-13T11:10:30.372Z,12.90
2022-12-13T11:13:02.622Z,12.77
2022-12-13T11:15:32.851Z,12.50
2022-12-13T11:18:05.684Z,11.70
2022-12-13T11:20:36.761Z,12.70
2022-12-13T11:23:08.694Z,12.33
2022-12-13T11:25:41.807Z,11.73
2022-12-13T11:28:27.822Z,12.43
2022-12-13T11:31:07.613Z,12.10
2022-12-13T11:33:48.915Z,12.00
2022-12-13T11:36:29.432Z,12.33
2022-12-13T11:39:15.231Z,11.47
2022-12-13T11:41:50.648Z,12.87
2022-12-13T11:44:25.414Z,12.70
2022-12-13T11:46:56.869Z,11.60
2022-12-13T11:49:38.248Z,11.13
2022-12-13T11:52:15.371Z,11.87
2022-12-13T11:54:55.703Z,11.27
2022-12-13T11:57:44.021Z,10.53
2022-12-13T12:00:34.269Z,10.80
2022-12-13T12:03:18.358Z,11.37
2022-12-13T12:05:56.192Z,11.53
2022-12-13T12:08:34.442Z,11.23
2022-12-13T12:11:09.954Z,11.60
2022-12-13T12:13:50.908Z,11.57
2022-12-13T12:16:29.917Z,11.30
2022-12-13T12:19:01.350Z,11.40
2022-12-13T12:24:36.279Z,12.13
2022-12-13T12:27:22.367Z,11.97
2022-12-13T12:30:11.387Z,10.80
2022-12-13T12:32:48.693Z,12.03
2022-12-13T12:35:28.981Z,12.40
2022-12-13T12:38:13.007Z,12.33
2022-12-13T12:41:15.544Z,12.07
2022-12-13T12:43:43.476Z,12.00
2022-12-13T12:46:52.267Z,12.57
2022-12-13T12:50:02.870Z,11.17
2022-12-13T12:52:45.255Z,11.33
2022-12-13T12:55:20.635Z,12.67
2022-12-13T12:58:01.396Z,11.70
2022-12-13T13:00:36.862Z,14.10
2022-12-13T13:03:26.738Z,12.77
2022-12-13T13:06:02.381Z,12.33
2022-12-13T13:08:38.781Z,12.60
2022-12-13T13:11:25.065Z,12.30
2022-12-13T13:14:06.508Z,12.47
2022-12-13T13:16:39.114Z,13.23
2022-12-13T13:19:27.387Z,12.37
2022-12-13T13:22:02.092Z,12.93
2022-12-13T13:24:31.966Z,14.53
2022-12-13T13:27:21.023Z,12.20
2022-12-13T13:29:48.954Z,13.87
2022-12-13T13:32:30.083Z,12.23
2022-12-13T13:35:31.520Z,11.50
2022-12-13T13:38:06.081Z,12.03
2022-12-13T13:40:35.770Z,12.83
2022-12-13T13:43:10.819Z,12.63
2022-12-13T13:45:57.230Z,12.47
2022-12-13T13:48:40.434Z,11.97
2022-12-13T13:52:16.768Z,12.87
2022-12-13T13:55:03.945Z,10.93
2022-12-13T13:58:09.804Z,12.13
2022-12-13T14:01:02.496Z,12.00
2022-12-13T14:04:10.267Z,12.83
2022-12-13T14:07:10.382Z,12.03
2022-12-13T14:09:54.606Z,12.63
2022-12-13T14:13:04.164Z,12.13
2022-12-13T14:16:23.662Z,13.03
2022-12-13T14:19:29.572Z,13.40
2022-12-13T14:22:39.506Z,13.77
2022-12-13T14:25:46.442Z,13.77
2022-12-13T14:28:28.897Z,12.83
2022-12-13T14:30:57.932Z,12.70
2022-12-13T14:33:28.345Z,13.43
2022-12-13T14:36:00.890Z,12.93
2022-12-13T14:38:30.537Z,14.23
2022-12-13T14:41:02.225Z,13.47
2022-12-13T14:43:37.482Z,14.87
2022-12-13T14:46:07.960Z,15.20
2022-12-13T14:48:38.464Z,14.23
2022-12-13T14:51:06.594Z,15.60
2022-12-13T14:53:41.190Z,16.87
2022-12-13T14:56:27.660Z,14.43
2022-12-13T14:58:58.696Z,15.73
2022-12-13T15:01:30.387Z,15.43
2022-12-13T15:04:20.506Z,15.27
2022-12-13T15:06:55.515Z,15.43
2022-12-13T15:09:29.017Z,15.07
2022-12-13T15:12:14.806Z,13.43
2022-12-13T15:14:51.615Z,14.37
2022-12-13T15:17:28.029Z,15.17
2022-12-13T15:19:58.626Z,14.93
2022-12-13T15:22:29.466Z,14.83
2022-12-13T15:24:58.644Z,13.83
2022-12-13T15:27:28.312Z,13.87
2022-12-13T15:29:56.657Z,14.33
2022-12-13T15:32:24.526Z,13.30
2022-12-13T15:34:52.855Z,13.03
2022-12-13T15:37:28.038Z,13.43
2022-12-13T15:40:01.231Z,14.10
2022-12-13T15:42:34.873Z,15.60
2022-12-13T15:45:07.038Z,13.77
2022-12-13T15:47:35.259Z,14.73
2022-12-13T15:50:06.826Z,13.90
2022-12-13T15:52:37.790Z,13.73
2022-12-13T15:55:33.798Z,15.10
2022-12-13T15:58:04.018Z,13.73
2022-12-13T16:00:34.423Z,14.03
2022-12-13T16:03:09.747Z,13.80
2022-12-13T16:05:42.361Z,12.87
2022-12-13T16:08:25.628Z,13.30
2022-12-13T16:10:54.613Z,12.17
2022-12-13T16:13:27.747Z,14.83
2022-12-13T16:16:26.459Z,13.80
2022-12-13T16:18:57.591Z,19.77
2022-12-13T16:21:26.325Z,11.13
2022-12-13T16:23:54.755Z,10.93
2022-12-13T16:26:25.679Z,9.63
2022-12-13T16:28:56.855Z,9.13
2022-12-13T16:31:27.784Z,9.63
2022-12-13T16:34:19.571Z,9.13
2022-12-13T16:36:54.303Z,9.63
2022-12-13T16:39:22.129Z,9.90
2022-12-13T16:41:50.015Z,10.10
2022-12-13T16:44:27.936Z,10.00
2022-12-13T16:47:12.090Z,8.53
2022-12-13T16:49:44.145Z,9.53
2022-12-13T16:52:12.161Z,8.57
2022-12-13T16:54:40.109Z,8.40
2022-12-13T16:57:08.019Z,8.97
2022-12-13T16:59:37.438Z,9.40
2022-12-13T17:02:06.277Z,8.77
2022-12-13T17:04:34.269Z,9.30
2022-12-13T17:07:02.182Z,9.43
2022-12-13T17:09:30.094Z,10.97
2022-12-13T17:11:58.189Z,9.17
2022-12-13T17:14:26.230Z,9.27
2022-12-13T17:16:55.636Z,9.23
2022-12-13T17:19:24.015Z,9.43
2022-12-13T17:21:52.574Z,9.30
2022-12-13T17:24:20.401Z,9.17
2022-12-13T17:26:54.785Z,12.00
2022-12-13T17:29:24.347Z,13.00
2022-12-13T17:31:52.498Z,14.23
2022-12-13T17:34:21.787Z,12.07
2022-12-13T17:36:49.838Z,11.07
2022-12-13T17:39:17.718Z,9.30
2022-12-13T17:41:55.390Z,11.37
2022-12-13T17:44:25.310Z,11.20
2022-12-13T17:46:54.949Z,10.97
2022-12-13T17:49:25.285Z,10.80
2022-12-13T17:51:54.088Z,11.70
2022-12-13T17:54:23.586Z,10.73
2022-12-13T17:56:51.406Z,9.13
2022-12-13T17:59:19.355Z,10.03
2022-12-13T18:01:47.977Z,9.43
2022-12-13T18:04:16.179Z,8.97
2022-12-13T18:06:45.876Z,10.00
2022-12-13T18:09:14.438Z,9.33
2022-12-13T18:11:42.293Z,9.73
2022-12-13T18:14:10.434Z,11.13
2022-12-13T18:16:39.355Z,9.33
2022-12-13T18:19:09.405Z,8.57
2022-12-13T18:21:39.903Z,9.40
2022-12-13T18:24:10.502Z,9.40
2022-12-13T18:26:38.476Z,10.10
2022-12-13T18:29:07.109Z,9.60
2022-12-13T18:31:35.348Z,9.80
2022-12-13T18:34:03.275Z,8.93
2022-12-13T18:36:31.314Z,9.37
2022-12-13T18:38:59.355Z,9.27
2022-12-13T18:41:30.697Z,9.80
2022-12-13T18:44:00.222Z,8.00
2022-12-13T18:46:29.285Z,8.80
2022-12-13T18:48:57.844Z,8.17
2022-12-13T18:51:26.062Z,8.50
2022-12-13T18:53:54.536Z,8.40
2022-12-13T18:56:22.691Z,9.00
2022-12-13T18:58:53.299Z,9.23
2022-12-13T19:01:25.596Z,8.60
2022-12-13T19:03:53.757Z,8.70
2022-12-13T19:06:23.819Z,9.37
2022-12-13T19:09:17.818Z,8.97
2022-12-13T19:11:45.780Z,8.90
2022-12-13T19:14:15.002Z,8.63
2022-12-13T19:16:43.058Z,8.37
2022-12-13T19:19:10.945Z,8.10
2022-12-13T19:21:38.795Z,8.87
2022-12-13T19:24:10.889Z,8.80
2022-12-13T19:26:39.055Z,8.23
2022-12-13T19:29:07.370Z,7.80
2022-12-13T19:31:36.727Z,8.67
2022-12-13T19:34:04.880Z,8.63
2022-12-13T19:36:33.874Z,8.77
2022-12-13T19:39:02.084Z,9.30
2022-12-13T19:41:32.178Z,8.70
2022-12-13T19:44:03.577Z,9.30
2022-12-13T19:46:31.693Z,8.80
2022-12-13T19:49:01.054Z,8.87
2022-12-13T19:51:29.809Z,9.30
2022-12-13T19:54:00.376Z,9.10
2022-12-13T19:56:28.245Z,9.67
2022-12-13T19:58:56.180Z,10.07
2022-12-13T20:01:24.273Z,10.83
2022-12-13T20:03:52.140Z,9.80
2022-12-13T20:06:24.043Z,9.43
2022-12-13T20:08:52.223Z,9.03
2022-12-13T20:11:21.902Z,8.87
2022-12-13T20:13:51.273Z,9.23
2022-12-13T20:16:21.786Z,10.10
2022-12-13T20:18:55.537Z,9.77
2022-12-13T20:21:25.291Z,9.87
2022-12-13T20:23:53.387Z,13.07
2022-12-13T20:26:23.565Z,12.60
2022-12-13T20:28:52.179Z,13.40
2022-12-13T20:31:21.981Z,14.20
2022-12-13T20:33:50.007Z,11.77
2022-12-13T20:36:24.736Z,11.73
2022-12-13T20:38:56.186Z,10.80
2022-12-13T20:41:25.986Z,9.90
2022-12-13T20:43:54.538Z,10.73
2022-12-13T20:46:23.363Z,11.33
2022-12-13T20:48:52.936Z,11.43
2022-12-13T20:51:22.467Z,11.40
2022-12-13T20:53:51.680Z,12.03
2022-12-13T20:56:22.748Z,12.27
2022-12-13T20:58:51.996Z,12.23
2022-12-13T21:01:22.255Z,12.13
2022-12-13T21:03:51.330Z,12.03
2022-12-13T21:06:19.180Z,11.93
2022-12-13T21:08:53.051Z,12.40
2022-12-13T21:11:29.184Z,11.77
2022-12-13T21:14:05.421Z,11.73
2022-12-13T21:16:39.208Z,12.57
2022-12-13T21:19:08.530Z,12.63
2022-12-13T21:21:36.778Z,18.40
2022-12-13T21:24:04.890Z,17.30
2022-12-13T21:26:36.123Z,11.50
2022-12-13T21:29:07.280Z,11.13
2022-12-13T21:31:36.443Z,11.23
2022-12-13T21:34:06.528Z,11.07
2022-12-13T21:36:36.142Z,11.17
2022-12-13T21:39:07.037Z,10.73
2022-12-13T21:41:36.419Z,11.80
2022-12-13T21:44:04.217Z,10.40
2022-12-13T21:47:11.276Z,10.77
2022-12-13T21:49:20.645Z,9.40
2022-12-13T21:51:48.777Z,9.00
2022-12-13T21:54:17.843Z,9.17
2022-12-13T21:57:04.496Z,9.17
2022-12-13T21:59:32.690Z,10.23
2022-12-13T22:02:19.032Z,10.27
2022-12-13T22:04:49.115Z,10.03
2022-12-13T22:07:19.092Z,10.50
2022-12-13T22:09:47.812Z,10.33
2022-12-13T22:12:22.688Z,10.40
2022-12-13T22:14:50.936Z,10.07
2022-12-13T22:17:19.804Z,10.10
2022-12-13T22:19:48.747Z,10.00
2022-12-13T22:22:17.808Z,9.57
2022-12-13T22:24:52.695Z,9.33
2022-12-13T22:27:23.919Z,8.93
2022-12-13T22:29:52.500Z,9.20
2022-12-13T22:32:21.095Z,9.33
2022-12-13T22:34:49.020Z,8.77
2022-12-13T22:37:16.992Z,8.30
2022-12-13T22:39:44.882Z,7.83
2022-12-13T22:42:12.654Z,8.00
2022-12-13T22:44:45.736Z,8.10
2022-12-13T22:47:13.561Z,7.43
2022-12-13T22:49:41.966Z,7.77
2022-12-13T22:52:09.974Z,8.40
2022-12-13T22:54:38.085Z,8.80
2022-12-13T22:57:05.943Z,7.93
2022-12-13T22:59:34.010Z,8.30
2022-12-13T23:02:04.029Z,7.70
2022-12-13T23:04:32.765Z,7.53
2022-12-13T23:07:00.852Z,7.73
2022-12-13T23:09:28.802Z,8.23
2022-12-13T23:12:14.518Z,6.97
2022-12-13T23:14:42.645Z,7.00
2022-12-13T23:17:11.913Z,6.87
2022-12-13T23:19:50.127Z,6.63
2022-12-13T23:22:21.513Z,7.27
2022-12-13T23:24:49.988Z,7.00
2022-12-13T23:27:18.355Z,6.83
2022-12-13T23:29:46.305Z,6.97
2022-12-13T23:32:15.965Z,6.60
2022-12-13T23:34:43.758Z,7.10
2022-12-13T23:37:11.670Z,7.13
2022-12-13T23:39:41.018Z,7.23
2022-12-13T23:42:08.866Z,6.77
2022-12-13T23:44:37.549Z,6.73
2022-12-13T23:47:05.524Z,7.00
2022-12-13T23:49:34.996Z,7.57
2022-12-13T23:52:03.000Z,7.20
2022-12-13T23:54:30.864Z,7.17
2022-12-13T23:56:58.778Z,7.00
2022-12-13T23:59:28.263Z,6.70
